Skip Navigation Links
NOAA logo - Click to go to the NOAA homepage
NOAA's National Weather Service
Alaska Aviation Weather Unit
  NWS logo - Click to go to the NWS homepage
Left Navbar Graphic     21 AKDT = 05 GMT

   
NOAA is celebrating 200 years of science, service, and stewardship. Visit the NOAA 200th celebration Web site to learn more.
USA.gov is the U.S. Government's official Web portal to all Federal, state and local government Web resources and services.
Facebook
NWS on Facebook

Important Change Regarding the AAWU Web Presence

 

Over the last several months, the AAWU has been working to navigate its webpages to a nationally supported server. Security, as well as other needs, have necessitated the change.  In the process, we have made an effort to enhance the functionality of our website, as well as some of our products. As of June 27, 2017, aawu.arh.noaa.gov will be discontinued. The new AAWU web address is weather.gov/aawu. It is now live and will run in-parallel with the old site until it is discontinued. Please send any feedback or questions regarding the new webpages to nws.ar.aawu.webauthors@noaa.gov.  Thank you for your patience during this time of transition.
AAWU Home :: Display TAF Add Bookmark
PAEG 252353Z AUTO 00000KT 10SM OVC110 18/09 A2989 RMK AO2 SLP122
     60000 T01780094 10178 20122 56016 TSNO=

METAR PAEG 260053Z AUTO 05005KT 10SM CLR 19/08 A2988 RMK AO2 SLP120
     T01890078 TSNO=

METAR PAEG 260153Z AUTO VRB04KT 10SM CLR 18/07 A2988 RMK AO2 SLP118
     T01830067 TSNO=

METAR PAEG 260253Z AUTO VRB03KT 10SM FEW110 19/08 A2985 RMK AO2 SLP111
     T01890078 58012 TSNO=

METAR PAEG 260353Z AUTO 00000KT 10SM BKN080 OVC120 18/07 A2985 RMK AO2
     SLP108 T01830072 TSNO=

METAR PAEG 260453Z AUTO 00000KT 10SM OVC090 18/09 A2984 RMK AO2 SLP106
     T01780089 TSNO=


NOAA's National Weather Service
Alaska Aviation Weather Unit
6930 Sand Lake Road
Anchorage, AK 99502-1845
Disclaimer
Credits
Glossary
Privacy Policy
About Us
Career Opportunities
Contact AAWU Internet Services Site last modified: April, 17th 2012